Time,TemperatureF,DewpointF,PressureIn,WindDirection,WindDirectionDegrees,WindSpeedMPH,WindSpeedGustMPH,Humidity,HourlyPrecipIn,Conditions,Clouds,dailyrainin,SoftwareType,DateUTC
2013-10-10 00:04:00,50.2,46.5,30.03,SSW,192,0.0,0.0,87,0.00,,---,0.00,VWS V14.01,2013-10-10 05:04:00,
2013-10-10 00:09:00,50.1,46.4,30.03,SSW,192,0.0,0.0,87,0.00,,---,0.00,VWS V14.01,2013-10-10 05:09:00,
2013-10-10 00:14:00,50.0,46.6,30.03,SSW,192,0.0,0.0,88,0.00,,---,0.00,VWS V14.01,2013-10-10 05:14:00,
2013-10-10 00:19:00,49.9,46.5,30.02,SSW,192,0.0,0.0,88,0.00,,---,0.00,VWS V14.01,2013-10-10 05:19:00,
2013-10-10 00:24:00,49.7,46.3,30.02,SSW,192,0.0,0.0,88,0.00,,---,0.00,VWS V14.01,2013-10-10 05:24:00,
2013-10-10 00:29:00,49.7,46.3,30.02,SSW,192,0.0,0.0,88,0.00,,---,0.00,VWS V14.01,2013-10-10 05:29:00,
2013-10-10 00:34:00,49.7,46.3,30.02,SSW,192,0.0,0.0,88,0.00,,---,0.00,VWS V14.01,2013-10-10 05:34:00,
2013-10-10 00:39:00,49.6,46.2,30.02,SSW,192,0.0,0.0,88,0.00,,---,0.00,VWS V14.01,2013-10-10 05:39:00,
2013-10-10 00:44:00,49.3,45.9,30.03,SSW,192,0.0,0.0,88,0.00,,---,0.00,VWS V14.01,2013-10-10 05:44:00,
2013-10-10 00:49:00,49.1,45.7,30.03,SSW,192,0.0,0.0,88,0.00,,---,0.00,VWS V14.01,2013-10-10 05:49:00,
2013-10-10 00:54:00,48.9,45.8,30.03,SSW,192,0.0,0.0,89,0.00,,---,0.00,VWS V14.01,2013-10-10 05:54:00,
2013-10-10 00:59:00,48.8,45.7,30.03,SSW,192,0.0,0.0,89,0.00,,---,0.00,VWS V14.01,2013-10-10 05:59:00,
2013-10-10 01:04:00,48.8,45.7,30.03,SSW,193,0.0,0.0,89,0.00,,---,0.00,VWS V14.01,2013-10-10 06:04:00,
2013-10-10 01:09:00,48.8,45.7,30.03,SSW,192,0.0,0.0,89,0.00,,---,0.00,VWS V14.01,2013-10-10 06:09:00,
2013-10-10 01:15:00,48.7,45.6,30.03,SSW,192,0.0,0.0,89,0.00,,---,0.00,VWS V14.01,2013-10-10 06:15:00,
2013-10-10 01:20:00,48.6,45.5,30.03,SSW,192,0.0,0.0,89,0.00,,---,0.00,VWS V14.01,2013-10-10 06:20:00,
2013-10-10 01:25:00,48.3,45.2,30.03,SSW,192,0.0,0.0,89,0.00,,---,0.00,VWS V14.01,2013-10-10 06:25:00,
2013-10-10 01:30:00,47.9,45.1,30.03,SSW,192,0.0,0.0,90,0.00,,---,0.00,VWS V14.01,2013-10-10 06:30:00,
2013-10-10 01:35:00,47.5,45.0,30.03,SSW,192,0.0,0.0,91,0.00,,---,0.00,VWS V14.01,2013-10-10 06:35:00,
2013-10-10 01:40:00,47.2,44.7,30.03,SSW,192,0.0,0.0,91,0.00,,---,0.00,VWS V14.01,2013-10-10 06:40:00,
2013-10-10 01:45:00,46.9,44.4,30.03,SSW,192,0.0,0.0,91,0.00,,---,0.00,VWS V14.01,2013-10-10 06:45:00,
2013-10-10 01:50:00,46.3,43.8,30.03,SSW,192,0.0,0.0,91,0.00,,---,0.00,VWS V14.01,2013-10-10 06:50:00,
2013-10-10 01:55:00,46.1,43.9,30.03,SSW,192,0.0,0.0,92,0.00,,---,0.00,VWS V14.01,2013-10-10 06:55:00,
2013-10-10 02:00:00,45.9,44.0,30.03,SSW,192,0.0,0.0,93,0.00,,---,0.00,VWS V14.01,2013-10-10 07:00:00,
2013-10-10 02:05:00,45.7,43.8,30.03,SSW,192,0.0,0.0,93,0.00,,---,0.00,VWS V14.01,2013-10-10 07:05:00,
2013-10-10 02:10:00,45.4,43.5,30.03,SSW,192,0.0,0.0,93,0.00,,---,0.00,VWS V14.01,2013-10-10 07:10:00,
2013-10-10 02:15:00,45.1,43.2,30.04,SSW,192,0.0,0.0,93,0.00,,---,0.00,VWS V14.01,2013-10-10 07:15:00,
2013-10-10 02:20:00,44.8,42.9,30.04,SSW,192,0.0,0.0,93,0.00,,---,0.00,VWS V14.01,2013-10-10 07:20:00,
2013-10-10 02:25:00,44.6,43.0,30.04,SSW,192,0.0,0.0,94,0.00,,---,0.00,VWS V14.01,2013-10-10 07:25:00,
2013-10-10 02:30:00,44.4,42.8,30.04,SSW,192,0.0,0.0,94,0.00,,---,0.00,VWS V14.01,2013-10-10 07:30:00,
2013-10-10 02:35:00,44.3,42.7,30.04,SSW,192,0.0,0.0,94,0.00,,---,0.00,VWS V14.01,2013-10-10 07:35:00,
2013-10-10 02:41:00,44.1,42.5,30.04,SSW,192,0.0,0.0,94,0.00,,---,0.00,VWS V14.01,2013-10-10 07:41:00,
2013-10-10 02:46:00,44.1,42.8,30.04,SSW,192,0.0,0.0,95,0.00,,---,0.00,VWS V14.01,2013-10-10 07:46:00,
2013-10-10 02:51:00,43.8,42.2,30.04,SSW,192,0.0,0.0,94,0.00,,---,0.00,VWS V14.01,2013-10-10 07:51:00,
2013-10-10 02:56:00,43.6,42.3,30.04,SSW,192,0.0,0.0,95,0.00,,---,0.00,VWS V14.01,2013-10-10 07:56:00,
2013-10-10 03:01:00,43.5,42.2,30.04,SSW,192,0.0,0.0,95,0.00,,---,0.00,VWS V14.01,2013-10-10 08:01:00,
2013-10-10 03:06:00,43.2,41.9,30.04,SSW,192,0.0,0.0,95,0.00,,---,0.00,VWS V14.01,2013-10-10 08:06:00,
2013-10-10 03:11:00,42.9,41.6,30.04,SSW,192,0.0,0.0,95,0.00,,---,0.00,VWS V14.01,2013-10-10 08:11:00,
2013-10-10 03:16:00,42.9,41.6,30.04,SSW,192,0.0,0.0,95,0.00,,---,0.00,VWS V14.01,2013-10-10 08:16:00,
2013-10-10 03:21:00,42.7,41.4,30.04,SSW,192,0.0,0.0,95,0.00,,---,0.00,VWS V14.01,2013-10-10 08:21:00,
2013-10-10 03:26:00,42.6,41.3,30.04,SSW,192,0.0,0.0,95,0.00,,---,0.00,VWS V14.01,2013-10-10 08:26:00,
2013-10-10 03:31:00,42.6,41.3,30.04,SSW,192,0.0,0.0,95,0.00,,---,0.00,VWS V14.01,2013-10-10 08:31:00,
2013-10-10 03:36:00,42.9,41.8,30.04,SSW,192,0.0,0.0,96,0.00,,---,0.00,VWS V14.01,2013-10-10 08:36:00,
2013-10-10 03:41:00,42.7,41.6,30.04,SSW,192,0.0,0.0,96,0.00,,---,0.00,VWS V14.01,2013-10-10 08:41:00,
2013-10-10 03:47:00,42.4,41.1,30.04,SSW,192,0.0,0.0,95,0.00,,---,0.00,VWS V14.01,2013-10-10 08:47:00,
2013-10-10 03:52:00,42.2,40.9,30.04,SSW,192,0.0,0.0,95,0.00,,---,0.00,VWS V14.01,2013-10-10 08:52:00,
2013-10-10 03:57:00,42.1,40.8,30.04,SSW,192,0.0,0.0,95,0.00,,---,0.00,VWS V14.01,2013-10-10 08:57:00,
2013-10-10 04:02:00,41.8,40.5,30.04,SSW,192,0.0,0.0,95,0.00,,---,0.00,VWS V14.01,2013-10-10 09:02:00,
2013-10-10 04:07:00,41.5,40.2,30.04,SSW,192,0.0,0.0,95,0.00,,---,0.00,VWS V14.01,2013-10-10 09:07:00,
2013-10-10 04:12:00,41.4,40.1,30.04,SSW,192,0.0,0.0,95,0.00,,---,0.00,VWS V14.01,2013-10-10 09:12:00,
2013-10-10 04:17:00,41.4,40.3,30.04,SSW,192,0.0,0.0,96,0.00,,---,0.00,VWS V14.01,2013-10-10 09:17:00,
2013-10-10 04:22:00,41.3,40.2,30.04,SSW,192,0.0,0.0,96,0.00,,---,0.00,VWS V14.01,2013-10-10 09:22:00,
2013-10-10 04:27:00,41.1,40.0,30.04,SSW,192,0.0,0.0,96,0.00,,---,0.00,VWS V14.01,2013-10-10 09:27:00,
2013-10-10 04:32:00,40.7,39.4,30.05,SSW,192,0.0,0.0,95,0.00,,---,0.00,VWS V14.01,2013-10-10 09:32:00,
2013-10-10 04:37:00,40.4,39.1,30.05,SSW,192,0.0,0.0,95,0.00,,---,0.00,VWS V14.01,2013-10-10 09:37:00,
2013-10-10 04:42:00,40.1,38.8,30.05,SSW,192,0.0,0.0,95,0.00,,---,0.00,VWS V14.01,2013-10-10 09:42:00,
2013-10-10 04:47:00,40.0,38.7,30.05,SSW,192,0.0,0.0,95,0.00,,---,0.00,VWS V14.01,2013-10-10 09:47:00,
2013-10-10 04:52:00,40.0,39.0,30.05,SSW,192,0.0,0.0,96,0.00,,---,0.00,VWS V14.01,2013-10-10 09:52:00,
2013-10-10 04:57:00,39.9,38.8,30.05,SSW,192,0.0,0.0,96,0.00,,---,0.00,VWS V14.01,2013-10-10 09:57:00,
2013-10-10 05:02:00,39.6,38.6,30.05,SSW,192,0.0,0.0,96,0.00,,---,0.00,VWS V14.01,2013-10-10 10:02:00,
2013-10-10 05:07:00,39.4,38.4,30.05,SSW,192,0.0,0.0,96,0.00,,---,0.00,VWS V14.01,2013-10-10 10:07:00,
2013-10-10 05:13:00,39.4,38.4,30.05,SSW,192,0.0,0.0,96,0.00,,---,0.00,VWS V14.01,2013-10-10 10:13:00,
2013-10-10 05:18:00,39.2,38.2,30.05,SSW,192,0.0,0.0,96,0.00,,---,0.00,VWS V14.01,2013-10-10 10:18:00,
2013-10-10 05:23:00,39.0,38.0,30.05,SSW,192,0.0,0.0,96,0.00,,---,0.00,VWS V14.01,2013-10-10 10:23:00,
2013-10-10 05:28:00,39.0,38.0,30.05,SSW,192,0.0,0.0,96,0.00,,---,0.00,VWS V14.01,2013-10-10 10:28:00,
2013-10-10 05:33:00,39.0,38.0,30.05,SSW,192,0.0,0.0,96,0.00,,---,0.00,VWS V14.01,2013-10-10 10:33:00,
2013-10-10 05:38:00,38.8,37.8,30.05,SSW,192,0.0,0.0,96,0.00,,---,0.00,VWS V14.01,2013-10-10 10:38:00,
2013-10-10 05:43:00,38.7,37.7,30.05,SSW,192,0.0,0.0,96,0.00,,---,0.00,VWS V14.01,2013-10-10 10:43:00,
2013-10-10 05:48:00,38.7,37.7,30.05,SSW,192,0.0,0.0,96,0.00,,---,0.00,VWS V14.01,2013-10-10 10:48:00,
2013-10-10 05:53:00,38.9,38.1,30.05,SSW,192,0.0,0.0,97,0.00,,---,0.00,VWS V14.01,2013-10-10 10:53:00,
2013-10-10 05:58:00,38.9,38.1,30.05,SSW,192,0.0,0.0,97,0.00,,---,0.00,VWS V14.01,2013-10-10 10:58:00,
2013-10-10 06:03:00,38.7,37.9,30.05,SSW,192,0.0,0.0,97,0.00,,---,0.00,VWS V14.01,2013-10-10 11:03:00,
2013-10-10 06:08:00,38.7,37.9,30.05,SSW,192,0.0,0.0,97,0.00,,---,0.00,VWS V14.01,2013-10-10 11:08:00,
2013-10-10 06:13:00,38.9,38.1,30.05,SSW,192,0.0,0.0,97,0.00,,---,0.00,VWS V14.01,2013-10-10 11:13:00,
2013-10-10 06:18:00,38.9,38.1,30.05,SSW,192,0.0,0.0,97,0.00,,---,0.00,VWS V14.01,2013-10-10 11:18:00,
2013-10-10 06:23:00,38.9,38.1,30.05,SSW,192,0.0,0.0,97,0.00,,---,0.00,VWS V14.01,2013-10-10 11:23:00,
2013-10-10 06:28:00,38.9,38.1,30.05,SSW,192,0.0,0.0,97,0.00,,---,0.00,VWS V14.01,2013-10-10 11:28:00,
2013-10-10 06:33:00,38.8,38.0,30.05,SSW,192,0.0,0.0,97,0.00,,---,0.00,VWS V14.01,2013-10-10 11:33:00,
2013-10-10 06:39:00,38.8,38.0,30.05,SSW,192,0.0,0.0,97,0.00,,---,0.00,VWS V14.01,2013-10-10 11:39:00,
2013-10-10 06:44:00,38.7,37.9,30.05,SSW,192,0.0,0.0,97,0.00,,---,0.00,VWS V14.01,2013-10-10 11:44:00,
2013-10-10 06:49:00,38.6,37.8,30.05,SSW,192,0.0,0.0,97,0.00,,---,0.00,VWS V14.01,2013-10-10 11:49:00,
2013-10-10 06:54:00,38.5,37.7,30.05,SSW,192,0.0,0.0,97,0.00,,---,0.00,VWS V14.01,2013-10-10 11:54:00,
2013-10-10 06:59:00,38.3,37.5,30.05,SSW,192,0.0,0.0,97,0.00,,---,0.00,VWS V14.01,2013-10-10 11:59:00,
2013-10-10 07:04:00,38.3,37.5,30.06,SSW,192,0.0,0.0,97,0.00,,---,0.00,VWS V14.01,2013-10-10 12:04:00,
2013-10-10 07:09:00,38.2,37.4,30.06,SSW,192,0.0,0.0,97,0.00,,---,0.00,VWS V14.01,2013-10-10 12:09:00,
2013-10-10 07:14:00,38.1,37.3,30.05,SSW,192,0.0,0.0,97,0.00,,---,0.00,VWS V14.01,2013-10-10 12:14:00,
2013-10-10 07:19:00,38.1,37.3,30.05,SSW,192,0.0,0.0,97,0.00,,---,0.00,VWS V14.01,2013-10-10 12:19:00,
2013-10-10 07:24:00,38.1,37.3,30.05,SSW,192,0.0,0.0,97,0.00,,---,0.00,VWS V14.01,2013-10-10 12:24:00,
2013-10-10 07:29:00,38.1,37.3,30.05,SSW,193,0.0,0.0,97,0.00,,---,0.00,VWS V14.01,2013-10-10 12:29:00,
2013-10-10 07:34:00,38.0,37.2,30.05,SSW,192,0.0,0.0,97,0.00,,---,0.00,VWS V14.01,2013-10-10 12:34:00,
2013-10-10 07:39:00,38.1,37.3,30.05,SSW,192,0.0,0.0,97,0.00,,---,0.00,VWS V14.01,2013-10-10 12:39:00,
2013-10-10 07:44:00,38.1,37.3,30.05,SSW,192,0.0,0.0,97,0.00,,---,0.00,VWS V14.01,2013-10-10 12:44:00,
2013-10-10 07:49:00,38.2,37.4,30.05,SSW,192,0.0,0.0,97,0.00,,---,0.00,VWS V14.01,2013-10-10 12:49:00,
2013-10-10 07:54:00,38.4,37.6,30.05,SSW,192,0.0,0.0,97,0.00,,---,0.00,VWS V14.01,2013-10-10 12:54:00,
2013-10-10 07:59:00,38.7,37.9,30.05,SSW,192,0.0,0.0,97,0.00,,---,0.00,VWS V14.01,2013-10-10 12:59:00,
2013-10-10 08:04:00,39.0,38.2,30.05,SSW,192,0.0,0.0,97,0.00,,---,0.00,VWS V14.01,2013-10-10 13:04:00,
2013-10-10 08:10:00,39.3,38.5,30.05,SSW,192,0.0,0.0,97,0.00,,---,0.00,VWS V14.01,2013-10-10 13:10:00,
2013-10-10 08:15:00,39.8,39.3,30.06,SSW,192,0.0,0.0,98,0.00,,---,0.00,VWS V14.01,2013-10-10 13:15:00,
2013-10-10 08:20:00,40.6,40.1,30.06,SSW,192,0.0,0.0,98,0.00,,---,0.00,VWS V14.01,2013-10-10 13:20:00,
2013-10-10 08:25:00,41.1,40.6,30.06,SSW,192,0.0,0.0,98,0.00,,---,0.00,VWS V14.01,2013-10-10 13:25:00,
2013-10-10 08:30:00,41.3,40.8,30.06,SSW,192,0.0,0.0,98,0.00,,---,0.00,VWS V14.01,2013-10-10 13:30:00,
2013-10-10 08:35:00,41.8,41.3,30.06,SSW,192,0.0,0.0,98,0.00,,---,0.00,VWS V14.01,2013-10-10 13:35:00,
2013-10-10 08:40:00,42.4,41.9,30.06,SSW,192,0.0,0.0,98,0.00,,---,0.00,VWS V14.01,2013-10-10 13:40:00,
2013-10-10 08:45:00,43.5,43.0,30.05,SSW,192,0.0,0.0,98,0.00,,---,0.00,VWS V14.01,2013-10-10 13:45:00,
2013-10-10 08:50:00,44.4,43.9,30.05,SSW,192,0.0,0.0,98,0.00,,---,0.00,VWS V14.01,2013-10-10 13:50:00,
2013-10-10 08:55:00,45.4,44.9,30.05,SSW,193,0.0,0.0,98,0.00,,---,0.00,VWS V14.01,2013-10-10 13:55:00,
2013-10-10 09:00:00,46.4,46.1,30.05,SE,134,0.0,1.0,99,0.00,,---,0.00,VWS V14.01,2013-10-10 14:00:00,
2013-10-10 09:05:00,47.5,47.0,30.05,SE,134,0.0,0.0,98,0.00,,---,0.00,VWS V14.01,2013-10-10 14:05:00,
2013-10-10 09:10:00,48.8,47.4,30.05,SE,127,0.0,0.0,95,0.00,,---,0.00,VWS V14.01,2013-10-10 14:10:00,
2013-10-10 09:15:00,49.6,47.7,30.06,SE,126,0.0,0.0,93,0.00,,---,0.00,VWS V14.01,2013-10-10 14:15:00,
2013-10-10 09:20:00,50.6,47.5,30.06,SE,126,0.0,0.0,89,0.00,,---,0.00,VWS V14.01,2013-10-10 14:20:00,
2013-10-10 09:25:00,51.6,47.9,30.06,ESE,113,0.0,0.0,87,0.00,,---,0.00,VWS V14.01,2013-10-10 14:25:00,
2013-10-10 09:30:00,52.7,48.3,30.06,SE,139,0.0,0.0,85,0.00,,---,0.00,VWS V14.01,2013-10-10 14:30:00,
2013-10-10 09:35:00,54.1,48.7,30.06,ESE,117,0.0,0.0,82,0.00,,---,0.00,VWS V14.01,2013-10-10 14:35:00,
2013-10-10 09:40:00,55.2,49.8,30.06,South,188,0.0,0.0,82,0.00,,---,0.00,VWS V14.01,2013-10-10 14:40:00,
2013-10-10 09:45:00,56.3,50.2,30.05,SSE,165,0.0,0.0,80,0.00,,---,0.00,VWS V14.01,2013-10-10 14:45:00,
2013-10-10 09:50:00,57.1,50.0,30.05,ESE,111,0.0,0.0,77,0.00,,---,0.00,VWS V14.01,2013-10-10 14:50:00,
2013-10-10 09:55:00,58.0,50.5,30.05,ESE,107,0.0,0.0,76,0.00,,---,0.00,VWS V14.01,2013-10-10 14:55:00,
2013-10-10 10:00:00,58.9,50.6,30.06,ESE,117,0.0,0.0,74,0.00,,---,0.00,VWS V14.01,2013-10-10 15:00:00,
2013-10-10 10:06:00,59.7,50.3,30.06,ESE,123,0.0,0.0,71,0.00,,---,0.00,VWS V14.01,2013-10-10 15:06:00,
2013-10-10 10:11:00,60.3,50.9,30.06,SE,140,0.0,1.0,71,0.00,,---,0.00,VWS V14.01,2013-10-10 15:11:00,
2013-10-10 10:16:00,61.0,51.5,30.05,SSW,207,0.0,1.0,71,0.00,,---,0.00,VWS V14.01,2013-10-10 15:16:00,
2013-10-10 10:21:00,61.6,51.3,30.05,SSW,196,0.0,1.0,69,0.00,,---,0.00,VWS V14.01,2013-10-10 15:21:00,
2013-10-10 10:26:00,62.1,49.8,30.05,SSW,211,2.0,2.0,64,0.00,,---,0.00,VWS V14.01,2013-10-10 15:26:00,
2013-10-10 10:31:00,62.6,49.4,30.05,SW,234,0.0,0.0,62,0.00,,---,0.00,VWS V14.01,2013-10-10 15:31:00,
2013-10-10 10:36:00,63.2,49.5,30.05,SW,221,1.0,1.0,61,0.00,,---,0.00,VWS V14.01,2013-10-10 15:36:00,
2013-10-10 10:41:00,63.6,49.0,30.05,SE,134,1.0,4.0,59,0.00,,---,0.00,VWS V14.01,2013-10-10 15:41:00,
2013-10-10 10:46:00,63.8,49.2,30.05,ESE,111,2.0,4.0,59,0.00,,---,0.00,VWS V14.01,2013-10-10 15:46:00,
2013-10-10 10:51:00,64.1,49.5,30.05,South,191,0.0,4.0,59,0.00,,---,0.00,VWS V14.01,2013-10-10 15:51:00,
2013-10-10 10:56:00,64.3,48.8,30.05,South,175,1.0,4.0,57,0.00,,---,0.00,VWS V14.01,2013-10-10 15:56:00,
2013-10-10 11:01:00,64.4,48.4,30.04,SSE,150,0.0,2.0,56,0.00,,---,0.00,VWS V14.01,2013-10-10 16:01:00,
2013-10-10 11:06:00,64.4,48.4,30.04,ESE,117,2.0,2.0,56,0.00,,---,0.00,VWS V14.01,2013-10-10 16:06:00,
2013-10-10 11:11:00,64.5,48.5,30.04,SSW,209,0.0,2.0,56,0.00,,---,0.00,VWS V14.01,2013-10-10 16:11:00,
2013-10-10 11:16:00,64.7,49.1,30.04,South,169,1.0,2.0,57,0.00,,---,0.00,VWS V14.01,2013-10-10 16:16:00,
2013-10-10 11:21:00,64.8,48.8,30.04,SW,226,1.0,5.0,56,0.00,,---,0.00,VWS V14.01,2013-10-10 16:21:00,
2013-10-10 11:26:00,64.9,48.4,30.04,ESE,117,0.0,5.0,55,0.00,,---,0.00,VWS V14.01,2013-10-10 16:26:00,
2013-10-10 11:31:00,64.9,48.8,30.04,ESE,111,2.0,3.0,56,0.00,,---,0.00,VWS V14.01,2013-10-10 16:31:00,
2013-10-10 11:36:00,64.9,47.9,30.04,SE,145,2.0,4.0,54,0.00,,---,0.00,VWS V14.01,2013-10-10 16:36:00,
2013-10-10 11:41:00,64.9,48.4,30.04,ESE,113,0.0,4.0,55,0.00,,---,0.00,VWS V14.01,2013-10-10 16:41:00,
2013-10-10 11:46:00,65.1,48.1,30.03,South,188,1.0,4.0,54,0.00,,---,0.00,VWS V14.01,2013-10-10 16:46:00,
2013-10-10 11:51:00,65.4,47.8,30.03,SE,144,2.0,4.0,53,0.00,,---,0.00,VWS V14.01,2013-10-10 16:51:00,
2013-10-10 11:56:00,66.1,48.0,30.03,East,101,2.0,4.0,52,0.00,,---,0.00,VWS V14.01,2013-10-10 16:56:00,
2013-10-10 12:02:00,66.5,47.8,30.03,SSE,153,0.0,2.0,51,0.00,,---,0.00,VWS V14.01,2013-10-10 17:02:00,
2013-10-10 12:07:00,66.9,49.2,30.03,South,184,1.0,2.0,53,0.00,,---,0.00,VWS V14.01,2013-10-10 17:07:00,
2013-10-10 12:12:00,67.9,48.6,30.03,South,169,1.0,3.0,50,0.00,,---,0.00,VWS V14.01,2013-10-10 17:12:00,
2013-10-10 12:17:00,68.3,49.0,30.02,SE,136,2.0,3.0,50,0.00,,---,0.00,VWS V14.01,2013-10-10 17:17:00,
2013-10-10 12:22:00,68.8,48.9,30.02,ESE,111,2.0,3.0,49,0.00,,---,0.00,VWS V14.01,2013-10-10 17:22:00,
2013-10-10 12:27:00,69.5,49.0,30.02,SE,145,1.0,7.0,48,0.00,,---,0.00,VWS V14.01,2013-10-10 17:27:00,
2013-10-10 12:32:00,69.6,48.5,30.01,SE,127,1.0,6.0,47,0.00,,---,0.00,VWS V14.01,2013-10-10 17:32:00,
2013-10-10 12:37:00,69.2,46.4,30.01,SE,134,2.0,7.0,44,0.00,,---,0.00,VWS V14.01,2013-10-10 17:37:00,
2013-10-10 12:42:00,69.2,47.6,30.01,ESE,109,0.0,7.0,46,0.00,,---,0.00,VWS V14.01,2013-10-10 17:42:00,
2013-10-10 12:47:00,69.4,47.2,30.00,SSW,196,0.0,7.0,45,0.00,,---,0.00,VWS V14.01,2013-10-10 17:47:00,
2013-10-10 12:52:00,69.2,47.0,30.00,SE,125,1.0,7.0,45,0.00,,---,0.00,VWS V14.01,2013-10-10 17:52:00,
2013-10-10 12:57:00,68.9,46.7,30.00,SSE,168,1.0,7.0,45,0.00,,---,0.00,VWS V14.01,2013-10-10 17:57:00,
2013-10-10 13:02:00,69.3,47.1,30.00,SE,141,1.0,2.0,45,0.00,,---,0.00,VWS V14.01,2013-10-10 18:02:00,
2013-10-10 13:07:00,69.6,47.3,30.00,ESE,103,0.0,4.0,45,0.00,,---,0.00,VWS V14.01,2013-10-10 18:07:00,
2013-10-10 13:13:00,70.3,48.0,30.00,ESE,103,0.0,4.0,45,0.00,,---,0.00,VWS V14.01,2013-10-10 18:13:00,
2013-10-10 13:17:00,70.2,47.9,30.00,South,169,0.0,4.0,45,0.00,,---,0.00,VWS V14.01,2013-10-10 18:17:00,
2013-10-10 13:23:00,70.3,47.4,30.00,South,169,0.0,4.0,44,0.00,,---,0.00,VWS V14.01,2013-10-10 18:23:00,
2013-10-10 13:28:00,70.3,47.4,30.00,SE,139,0.0,4.0,44,0.00,,---,0.00,VWS V14.01,2013-10-10 18:28:00,
2013-10-10 13:33:00,70.2,47.3,30.00,SE,146,0.0,2.0,44,0.00,,---,0.00,VWS V14.01,2013-10-10 18:33:00,
2013-10-10 13:38:00,69.9,47.0,30.00,South,169,0.0,3.0,44,0.00,,---,0.00,VWS V14.01,2013-10-10 18:38:00,
2013-10-10 13:43:00,69.7,46.8,30.00,SSE,155,0.0,3.0,44,0.00,,---,0.00,VWS V14.01,2013-10-10 18:43:00,
2013-10-10 13:48:00,70.0,47.7,29.99,SSE,156,0.0,3.0,45,0.00,,---,0.00,VWS V14.01,2013-10-10 18:48:00,
2013-10-10 13:53:00,70.5,47.6,29.99,ESE,107,2.0,3.0,44,0.00,,---,0.00,VWS V14.01,2013-10-10 18:53:00,
2013-10-10 13:58:00,70.4,47.5,29.99,SE,143,0.0,4.0,44,0.00,,---,0.00,VWS V14.01,2013-10-10 18:58:00,
2013-10-10 14:04:00,69.9,47.0,29.99,SE,126,2.0,5.0,44,0.00,,---,0.00,VWS V14.01,2013-10-10 19:04:00,
2013-10-10 14:09:00,69.5,47.2,29.99,SE,126,1.0,5.0,45,0.00,,---,0.00,VWS V14.01,2013-10-10 19:09:00,
2013-10-10 14:14:00,69.5,46.7,29.99,East,94,0.0,5.0,44,0.00,,---,0.00,VWS V14.01,2013-10-10 19:14:00,
2013-10-10 14:19:00,69.6,47.3,29.99,ESE,119,1.0,7.0,45,0.00,,---,0.00,VWS V14.01,2013-10-10 19:19:00,
2013-10-10 14:24:00,69.7,47.4,29.99,SE,126,0.0,7.0,45,0.00,,---,0.00,VWS V14.01,2013-10-10 19:24:00,
2013-10-10 14:29:00,70.0,47.1,29.99,SSE,165,2.0,7.0,44,0.00,,---,0.00,VWS V14.01,2013-10-10 19:29:00,
2013-10-10 14:34:00,70.1,47.8,29.99,SSW,202,0.0,2.0,45,0.00,,---,0.00,VWS V14.01,2013-10-10 19:34:00,
2013-10-10 14:39:00,69.9,47.6,29.99,ESE,106,0.0,6.0,45,0.00,,---,0.00,VWS V14.01,2013-10-10 19:39:00,
2013-10-10 14:44:00,69.8,48.1,29.99,ESE,107,0.0,6.0,46,0.00,,---,0.00,VWS V14.01,2013-10-10 19:44:00,
2013-10-10 14:49:00,69.9,47.6,29.99,ESE,116,0.0,6.0,45,0.00,,---,0.00,VWS V14.01,2013-10-10 19:49:00,
2013-10-10 14:54:00,69.8,47.5,29.99,SE,146,1.0,6.0,45,0.00,,---,0.00,VWS V14.01,2013-10-10 19:54:00,
2013-10-10 14:59:00,69.9,48.2,29.98,ESE,114,3.0,6.0,46,0.00,,---,0.00,VWS V14.01,2013-10-10 19:59:00,
2013-10-10 15:04:00,70.0,47.7,29.98,ESE,117,0.0,1.0,45,0.00,,---,0.00,VWS V14.01,2013-10-10 20:04:00,
2013-10-10 15:09:00,70.5,47.6,29.98,SE,136,2.0,3.0,44,0.00,,---,0.00,VWS V14.01,2013-10-10 20:09:00,
2013-10-10 15:14:00,70.6,47.7,29.98,SSE,159,0.0,4.0,44,0.00,,---,0.00,VWS V14.01,2013-10-10 20:14:00,
2013-10-10 15:19:00,70.6,47.7,29.98,SE,139,0.0,4.0,44,0.00,,---,0.00,VWS V14.01,2013-10-10 20:19:00,
2013-10-10 15:24:00,70.4,47.5,29.98,ESE,119,0.0,4.0,44,0.00,,---,0.00,VWS V14.01,2013-10-10 20:24:00,
2013-10-10 15:29:00,70.1,47.8,29.97,ESE,111,1.0,4.0,45,0.00,,---,0.00,VWS V14.01,2013-10-10 20:29:00,
2013-10-10 15:32:00,69.9,47.6,29.97,East,94,1.0,5.0,45,0.00,,---,0.00,VWS V14.01,2013-10-10 20:32:00,
2013-10-10 15:37:00,69.7,47.4,29.97,SE,125,0.0,5.0,45,0.00,,---,0.00,VWS V14.01,2013-10-10 20:37:00,
2013-10-10 15:42:00,70.0,47.7,29.97,SE,127,0.0,5.0,45,0.00,,---,0.00,VWS V14.01,2013-10-10 20:42:00,
2013-10-10 15:47:00,70.1,47.8,29.97,ESE,121,4.0,5.0,45,0.00,,---,0.00,VWS V14.01,2013-10-10 20:47:00,
2013-10-10 15:52:00,69.8,47.5,29.97,SSE,167,0.0,5.0,45,0.00,,---,0.00,VWS V14.01,2013-10-10 20:52:00,
2013-10-10 15:57:00,69.9,48.2,29.97,East,101,0.0,5.0,46,0.00,,---,0.00,VWS V14.01,2013-10-10 20:57:00,
2013-10-10 16:02:00,70.0,47.1,29.97,SE,128,0.0,3.0,44,0.00,,---,0.00,VWS V14.01,2013-10-10 21:02:00,
2013-10-10 16:07:00,69.9,47.0,29.97,SE,146,0.0,3.0,44,0.00,,---,0.00,VWS V14.01,2013-10-10 21:07:00,
2013-10-10 16:13:00,69.9,47.0,29.97,SE,144,0.0,3.0,44,0.00,,---,0.00,VWS V14.01,2013-10-10 21:13:00,
2013-10-10 16:18:00,69.9,47.0,29.97,ESE,115,1.0,3.0,44,0.00,,---,0.00,VWS V14.01,2013-10-10 21:18:00,
2013-10-10 16:23:00,69.7,46.8,29.97,SE,126,0.0,3.0,44,0.00,,---,0.00,VWS V14.01,2013-10-10 21:23:00,
2013-10-10 16:28:00,69.4,47.2,29.97,SE,136,0.0,4.0,45,0.00,,---,0.00,VWS V14.01,2013-10-10 21:28:00,
2013-10-10 16:33:00,69.2,47.6,29.97,ESE,108,1.0,3.0,46,0.00,,---,0.00,VWS V14.01,2013-10-10 21:33:00,
2013-10-10 16:38:00,69.1,46.9,29.97,SE,141,2.0,4.0,45,0.00,,---,0.00,VWS V14.01,2013-10-10 21:38:00,
2013-10-10 16:43:00,69.0,46.8,29.97,ESE,102,0.0,4.0,45,0.00,,---,0.00,VWS V14.01,2013-10-10 21:43:00,
2013-10-10 16:48:00,68.7,46.5,29.97,SE,134,2.0,4.0,45,0.00,,---,0.00,VWS V14.01,2013-10-10 21:48:00,
2013-10-10 16:53:00,68.5,46.3,29.97,ESE,111,0.0,4.0,45,0.00,,---,0.00,VWS V14.01,2013-10-10 21:53:00,
2013-10-10 16:58:00,68.4,46.2,29.97,ESE,110,0.0,4.0,45,0.00,,---,0.00,VWS V14.01,2013-10-10 21:58:00,
2013-10-10 17:03:00,68.2,47.2,29.97,ESE,115,0.0,1.0,47,0.00,,---,0.00,VWS V14.01,2013-10-10 22:03:00,
2013-10-10 17:08:00,68.0,47.0,29.97,SE,132,1.0,2.0,47,0.00,,---,0.00,VWS V14.01,2013-10-10 22:08:00,
2013-10-10 17:13:00,67.6,47.2,29.97,SE,132,1.0,3.0,48,0.00,,---,0.00,VWS V14.01,2013-10-10 22:13:00,
2013-10-10 17:18:00,67.3,47.0,29.97,ESE,111,0.0,3.0,48,0.00,,---,0.00,VWS V14.01,2013-10-10 22:18:00,
2013-10-10 17:23:00,67.0,46.7,29.97,SE,128,1.0,3.0,48,0.00,,---,0.00,VWS V14.01,2013-10-10 22:23:00,
2013-10-10 17:28:00,66.9,47.1,29.97,ESE,117,1.0,3.0,49,0.00,,---,0.00,VWS V14.01,2013-10-10 22:28:00,
2013-10-10 17:33:00,66.8,47.0,29.97,ESE,117,1.0,3.0,49,0.00,,---,0.00,VWS V14.01,2013-10-10 22:33:00,
2013-10-10 17:38:00,66.5,47.3,29.97,ESE,113,0.0,3.0,50,0.00,,---,0.00,VWS V14.01,2013-10-10 22:38:00,
2013-10-10 17:43:00,66.2,47.0,29.97,ESE,120,1.0,3.0,50,0.00,,---,0.00,VWS V14.01,2013-10-10 22:43:00,
2013-10-10 17:48:00,65.9,47.3,29.96,SE,128,0.0,3.0,51,0.00,,---,0.00,VWS V14.01,2013-10-10 22:48:00,
2013-10-10 17:53:00,65.5,47.4,29.96,ESE,115,0.0,3.0,52,0.00,,---,0.00,VWS V14.01,2013-10-10 22:53:00,
2013-10-10 17:58:00,65.2,47.2,29.96,ESE,118,0.0,3.0,52,0.00,,---,0.00,VWS V14.01,2013-10-10 22:58:00,
2013-10-10 18:04:00,64.8,47.3,29.97,ESE,117,0.0,0.0,53,0.00,,---,0.00,VWS V14.01,2013-10-10 23:04:00,
2013-10-10 18:09:00,64.3,47.3,29.97,ESE,118,0.0,0.0,54,0.00,,---,0.00,VWS V14.01,2013-10-10 23:09:00,
2013-10-10 18:14:00,63.7,47.2,29.97,ESE,119,0.0,0.0,55,0.00,,---,0.00,VWS V14.01,2013-10-10 23:14:00,
2013-10-10 18:19:00,63.2,47.3,29.97,ESE,117,0.0,0.0,56,0.00,,---,0.00,VWS V14.01,2013-10-10 23:19:00,
2013-10-10 18:24:00,62.8,46.9,29.97,ESE,118,0.0,0.0,56,0.00,,---,0.00,VWS V14.01,2013-10-10 23:24:00,
2013-10-10 18:29:00,62.4,47.0,29.97,ESE,118,0.0,0.0,57,0.00,,---,0.00,VWS V14.01,2013-10-10 23:29:00,
2013-10-10 18:34:00,61.9,47.0,29.97,ESE,119,0.0,0.0,58,0.00,,---,0.00,VWS V14.01,2013-10-10 23:34:00,
2013-10-10 18:39:00,61.2,48.5,29.97,ESE,118,0.0,0.0,63,0.00,,---,0.00,VWS V14.01,2013-10-10 23:39:00,
2013-10-10 18:44:00,60.0,49.4,29.97,ESE,117,0.0,0.0,68,0.00,,---,0.00,VWS V14.01,2013-10-10 23:44:00,
2013-10-10 18:49:00,58.8,49.0,29.97,ESE,117,0.0,0.0,70,0.00,,---,0.00,VWS V14.01,2013-10-10 23:49:00,
2013-10-10 18:54:00,57.8,48.8,29.97,ESE,117,0.0,0.0,72,0.00,,---,0.00,VWS V14.01,2013-10-10 23:54:00,
2013-10-10 18:59:00,57.1,48.5,29.97,ESE,117,0.0,0.0,73,0.00,,---,0.00,VWS V14.01,2013-10-10 23:59:00,
2013-10-10 19:04:00,56.5,48.3,29.97,ESE,117,0.0,0.0,74,0.00,,---,0.00,VWS V14.01,2013-10-11 00:04:00,
2013-10-10 19:09:00,56.0,47.5,29.97,ESE,117,0.0,0.0,73,0.00,,---,0.00,VWS V14.01,2013-10-11 00:09:00,
2013-10-10 19:14:00,55.7,48.3,29.97,ESE,117,0.0,0.0,76,0.00,,---,0.00,VWS V14.01,2013-10-11 00:14:00,
2013-10-10 19:19:00,55.6,47.1,29.97,ESE,117,0.0,0.0,73,0.00,,---,0.00,VWS V14.01,2013-10-11 00:19:00,
2013-10-10 19:24:00,56.1,47.6,29.97,ESE,117,0.0,0.0,73,0.00,,---,0.00,VWS V14.01,2013-10-11 00:24:00,
2013-10-10 19:29:00,55.9,47.7,29.97,ESE,117,0.0,0.0,74,0.00,,---,0.00,VWS V14.01,2013-10-11 00:29:00,
2013-10-10 19:34:00,55.7,47.5,29.97,ESE,117,0.0,0.0,74,0.00,,---,0.00,VWS V14.01,2013-10-11 00:34:00,
2013-10-10 19:39:00,55.2,48.1,29.97,ESE,117,0.0,0.0,77,0.00,,---,0.00,VWS V14.01,2013-10-11 00:39:00,
2013-10-10 19:44:00,54.8,47.4,29.96,ESE,117,0.0,0.0,76,0.00,,---,0.00,VWS V14.01,2013-10-11 00:44:00,
2013-10-10 19:49:00,54.4,47.3,29.96,ESE,117,0.0,0.0,77,0.00,,---,0.00,VWS V14.01,2013-10-11 00:49:00,
2013-10-10 19:54:00,54.0,47.3,29.96,ESE,117,0.0,0.0,78,0.00,,---,0.00,VWS V14.01,2013-10-11 00:54:00,
2013-10-10 20:00:00,53.6,46.9,29.97,ESE,117,0.0,0.0,78,0.00,,---,0.00,VWS V14.01,2013-10-11 01:00:00,
2013-10-10 20:05:00,53.4,47.4,29.97,ESE,117,0.0,0.0,80,0.00,,---,0.00,VWS V14.01,2013-10-11 01:05:00,
2013-10-10 20:10:00,53.1,47.1,29.97,ESE,117,0.0,0.0,80,0.00,,---,0.00,VWS V14.01,2013-10-11 01:10:00,
2013-10-10 20:15:00,52.8,47.1,29.97,ESE,117,0.0,0.0,81,0.00,,---,0.00,VWS V14.01,2013-10-11 01:15:00,
2013-10-10 20:20:00,52.3,46.7,29.97,ESE,117,0.0,0.0,81,0.00,,---,0.00,VWS V14.01,2013-10-11 01:20:00,
2013-10-10 20:25:00,51.9,46.6,29.97,ESE,117,0.0,0.0,82,0.00,,---,0.00,VWS V14.01,2013-10-11 01:25:00,
2013-10-10 20:30:00,51.7,46.7,29.96,ESE,117,0.0,0.0,83,0.00,,---,0.00,VWS V14.01,2013-10-11 01:30:00,
2013-10-10 20:35:00,51.5,46.5,29.96,ESE,117,0.0,0.0,83,0.00,,---,0.00,VWS V14.01,2013-10-11 01:35:00,
2013-10-10 20:40:00,51.2,46.5,29.96,ESE,117,0.0,0.0,84,0.00,,---,0.00,VWS V14.01,2013-10-11 01:40:00,
2013-10-10 20:45:00,50.9,46.2,29.97,ESE,117,0.0,0.0,84,0.00,,---,0.00,VWS V14.01,2013-10-11 01:45:00,
2013-10-10 20:50:00,50.8,46.5,29.97,ESE,117,0.0,0.0,85,0.00,,---,0.00,VWS V14.01,2013-10-11 01:50:00,
2013-10-10 20:55:00,50.8,46.5,29.97,ESE,117,0.0,0.0,85,0.00,,---,0.00,VWS V14.01,2013-10-11 01:55:00,
2013-10-10 21:00:00,50.9,46.6,29.97,ESE,117,0.0,0.0,85,0.00,,---,0.00,VWS V14.01,2013-10-11 02:00:00,
2013-10-10 21:05:00,51.0,46.7,29.97,ESE,117,0.0,0.0,85,0.00,,---,0.00,VWS V14.01,2013-10-11 02:05:00,
2013-10-10 21:10:00,51.1,46.4,29.97,ESE,117,0.0,0.0,84,0.00,,---,0.00,VWS V14.01,2013-10-11 02:10:00,
2013-10-10 21:15:00,51.0,46.7,29.97,ESE,117,0.0,0.0,85,0.00,,---,0.00,VWS V14.01,2013-10-11 02:15:00,
2013-10-10 21:20:00,50.8,46.5,29.97,ESE,117,0.0,0.0,85,0.00,,---,0.00,VWS V14.01,2013-10-11 02:20:00,
2013-10-10 21:25:00,50.6,46.3,29.97,ESE,117,0.0,0.0,85,0.00,,---,0.00,VWS V14.01,2013-10-11 02:25:00,
2013-10-10 21:31:00,50.3,46.3,29.97,ESE,117,0.0,0.0,86,0.00,,---,0.00,VWS V14.01,2013-10-11 02:31:00,
2013-10-10 21:36:00,49.9,45.9,29.97,ESE,117,0.0,0.0,86,0.00,,---,0.00,VWS V14.01,2013-10-11 02:36:00,
2013-10-10 21:41:00,49.6,45.9,29.97,ESE,117,0.0,0.0,87,0.00,,---,0.00,VWS V14.01,2013-10-11 02:41:00,
2013-10-10 21:46:00,49.3,45.6,29.97,ESE,117,0.0,0.0,87,0.00,,---,0.00,VWS V14.01,2013-10-11 02:46:00,
2013-10-10 21:51:00,49.0,45.6,29.97,ESE,117,0.0,0.0,88,0.00,,---,0.00,VWS V14.01,2013-10-11 02:51:00,
2013-10-10 21:56:00,48.7,45.6,29.97,ESE,117,0.0,0.0,89,0.00,,---,0.00,VWS V14.01,2013-10-11 02:56:00,
2013-10-10 22:01:00,48.6,45.5,29.97,ESE,117,0.0,0.0,89,0.00,,---,0.00,VWS V14.01,2013-10-11 03:01:00,
2013-10-10 22:06:00,48.4,45.3,29.97,ESE,117,0.0,0.0,89,0.00,,---,0.00,VWS V14.01,2013-10-11 03:06:00,
2013-10-10 22:11:00,48.1,45.0,29.97,ESE,117,0.0,0.0,89,0.00,,---,0.00,VWS V14.01,2013-10-11 03:11:00,
2013-10-10 22:16:00,47.9,44.8,29.97,ESE,117,0.0,0.0,89,0.00,,---,0.00,VWS V14.01,2013-10-11 03:16:00,
2013-10-10 22:21:00,47.7,44.6,29.97,ESE,117,0.0,0.0,89,0.00,,---,0.00,VWS V14.01,2013-10-11 03:21:00,
2013-10-10 22:26:00,47.4,44.6,29.97,ESE,117,0.0,0.0,90,0.00,,---,0.00,VWS V14.01,2013-10-11 03:26:00,
2013-10-10 22:31:00,47.2,44.4,29.97,ESE,117,0.0,0.0,90,0.00,,---,0.00,VWS V14.01,2013-10-11 03:31:00,
2013-10-10 22:36:00,47.0,44.2,29.97,ESE,117,0.0,0.0,90,0.00,,---,0.00,VWS V14.01,2013-10-11 03:36:00,
2013-10-10 22:41:00,46.8,44.3,29.97,ESE,117,0.0,0.0,91,0.00,,---,0.00,VWS V14.01,2013-10-11 03:41:00,
2013-10-10 22:46:00,46.6,44.1,29.97,ESE,117,0.0,0.0,91,0.00,,---,0.00,VWS V14.01,2013-10-11 03:46:00,
2013-10-10 22:51:00,46.7,44.2,29.97,ESE,117,0.0,0.0,91,0.00,,---,0.00,VWS V14.01,2013-10-11 03:51:00,
2013-10-10 22:56:00,46.9,44.7,29.97,ESE,117,0.0,0.0,92,0.00,,---,0.00,VWS V14.01,2013-10-11 03:56:00,
2013-10-10 23:01:00,46.7,44.2,29.98,ESE,117,0.0,0.0,91,0.00,,---,0.00,VWS V14.01,2013-10-11 04:01:00,
2013-10-10 23:02:00,46.7,44.2,29.98,ESE,117,0.0,0.0,91,0.00,,---,0.00,VWS V14.01,2013-10-11 04:02:00,
2013-10-10 23:03:00,46.7,44.2,29.98,ESE,117,0.0,0.0,91,0.00,,---,0.00,VWS V14.01,2013-10-11 04:03:00,
2013-10-10 23:05:00,46.6,44.1,29.98,ESE,117,0.0,0.0,91,0.00,,---,0.00,VWS V14.01,2013-10-11 04:05:00,
2013-10-10 23:10:00,46.8,44.3,29.98,ESE,117,0.0,0.0,91,0.00,,---,0.00,VWS V14.01,2013-10-11 04:10:00,
2013-10-10 23:15:00,47.3,45.1,29.98,ESE,117,0.0,1.0,92,0.00,,---,0.00,VWS V14.01,2013-10-11 04:15:00,
2013-10-10 23:20:00,47.6,45.1,29.98,ESE,117,0.0,1.0,91,0.00,,---,0.00,VWS V14.01,2013-10-11 04:20:00,
2013-10-10 23:25:00,47.6,44.8,29.98,ESE,117,0.0,1.0,90,0.00,,---,0.00,VWS V14.01,2013-10-11 04:25:00,
2013-10-10 23:30:00,47.3,44.5,29.98,ESE,117,0.0,0.0,90,0.00,,---,0.00,VWS V14.01,2013-10-11 04:30:00,
2013-10-10 23:35:00,47.5,45.3,29.98,ESE,117,0.0,0.0,92,0.00,,---,0.00,VWS V14.01,2013-10-11 04:35:00,
2013-10-10 23:40:00,47.8,45.6,29.98,ESE,117,0.0,0.0,92,0.00,,---,0.00,VWS V14.01,2013-10-11 04:40:00,
2013-10-10 23:46:00,48.3,46.1,29.98,ESE,116,0.0,0.0,92,0.00,,---,0.00,VWS V14.01,2013-10-11 04:46:00,
2013-10-10 23:51:00,48.7,46.2,29.98,ESE,116,0.0,0.0,91,0.00,,---,0.00,VWS V14.01,2013-10-11 04:51:00,
2013-10-10 23:56:00,49.1,46.6,29.98,ESE,113,0.0,0.0,91,0.00,,---,0.00,VWS V14.01,2013-10-11 04:56:00,